Time;durP1;ratioP1;P1;durP2;ratioP2;P2;SDS_P1;SDS_P2;PMS_P1;PMS_P2;Temp;Humidity;BMP_temperature;BMP_pressure;BME280_temperature;BME280_humidity;BME280_pressure;Samples;Min_cycle;Max_cycle;Signal;HPM_P1;HPM_P2
2022/03/31 00:00:10;;;;;;;2.88;1.55;;;;;;;;;;2065013;28;20030;-78
2022/03/31 00:01:29;;;;;;;1.60;1.50;;;;;;;;;;2064840;28;20038;-78
2022/03/31 00:02:48;;;;;;;8.30;2.00;;;;;;;;;;2056203;28;20031;-77
2022/03/31 00:04:08;;;;;;;3.50;1.77;;;;;;;;;;2056333;28;20027;-77
2022/03/31 00:05:30;;;;;;;3.40;1.58;;;;;;;;;;2061102;28;20101;-77
2022/03/31 00:06:49;;;;;;;2.50;2.00;;;;;;;;;;2065814;28;20023;-77
2022/03/31 00:08:14;;;;;;;5.75;2.00;;;;;;;;;;2056966;28;20035;-79
2022/03/31 00:09:34;;;;;;;9.57;2.30;;;;;;;;;;2061649;28;20041;-77
2022/03/31 00:10:54;;;;;;;5.03;1.60;;;;;;;;;;2054995;28;20035;-77
2022/03/31 00:12:13;;;;;;;4.07;1.75;;;;;;;;;;2055788;28;20022;-77
2022/03/31 00:13:32;;;;;;;3.40;1.52;;;;;;;;;;2053805;28;20031;-77
2022/03/31 00:14:51;;;;;;;5.57;1.58;;;;;;;;;;2062299;28;20031;-78
2022/03/31 00:16:10;;;;;;;6.90;1.83;;;;;;;;;;2056575;28;20022;-77
2022/03/31 00:17:29;;;;;;;3.42;1.80;;;;;;;;;;2056279;28;20022;-77
2022/03/31 00:18:48;;;;;;;7.13;1.88;;;;;;;;;;2054033;28;20234;-77
2022/03/31 00:20:07;;;;;;;1.50;1.40;;;;;;;;;;2059538;28;20026;-82
2022/03/31 00:21:50;;;;;;;6.50;1.80;;;;;;;;;;2055663;28;20042;-78
2022/03/31 00:23:09;;;;;;;6.78;1.60;;;;;;;;;;2064917;28;20034;-79
2022/03/31 00:24:27;;;;;;;4.43;1.90;;;;;;;;;;2064873;28;20030;-77
2022/03/31 00:25:46;;;;;;;4.50;1.45;;;;;;;;;;2056151;28;20579;-77
2022/03/31 00:27:05;;;;;;;3.35;1.40;;;;;;;;;;2062233;28;20034;-77
2022/03/31 00:28:26;;;;;;;8.23;1.90;;;;;;;;;;2057388;28;20046;-77
2022/03/31 00:29:45;;;;;;;3.25;1.80;;;;;;;;;;2055892;28;20035;-78
2022/03/31 00:31:03;;;;;;;2.55;1.60;;;;;;;;;;2057048;28;20421;-76
2022/03/31 00:32:22;;;;;;;3.22;1.70;;;;;;;;;;2056247;28;20496;-77
2022/03/31 00:33:41;;;;;;;1.88;1.70;;;;;;;;;;2053901;28;20034;-76
2022/03/31 00:35:00;;;;;;;2.10;1.63;;;;;;;;;;2061666;28;20038;-77
2022/03/31 00:36:19;;;;;;;3.92;1.75;;;;;;;;;;2056399;28;20031;-77
2022/03/31 00:37:38;;;;;;;4.55;2.30;;;;;;;;;;2062150;28;20026;-77
2022/03/31 00:40:35;;;;;;;5.13;1.80;;;;;;;;;;2064068;28;20034;-77
2022/03/31 00:41:55;;;;;;;4.45;1.70;;;;;;;;;;2055198;28;20481;-77
2022/03/31 00:43:14;;;;;;;5.72;2.08;;;;;;;;;;2053584;28;20428;-77
2022/03/31 00:44:33;;;;;;;3.42;1.40;;;;;;;;;;2061323;28;20446;-77
2022/03/31 00:45:56;;;;;;;2.95;1.80;;;;;;;;;;2055439;28;20031;-77
2022/03/31 00:47:15;;;;;;;2.38;1.80;;;;;;;;;;2062972;28;20034;-78
2022/03/31 00:48:34;;;;;;;5.20;1.70;;;;;;;;;;2056058;28;20038;-77
2022/03/31 00:49:53;;;;;;;4.47;2.05;;;;;;;;;;2051315;28;20485;-76
2022/03/31 00:51:12;;;;;;;5.38;1.40;;;;;;;;;;2061794;28;20046;-77
2022/03/31 00:52:31;;;;;;;6.25;2.00;;;;;;;;;;2064631;28;20034;-76
2022/03/31 00:53:51;;;;;;;2.78;2.03;;;;;;;;;;2065374;28;20117;-75
2022/03/31 00:55:11;;;;;;;4.57;1.40;;;;;;;;;;2055688;28;20110;-76
2022/03/31 00:56:31;;;;;;;2.05;1.52;;;;;;;;;;2054184;28;20484;-77
2022/03/31 00:57:55;;;;;;;5.65;1.80;;;;;;;;;;2062054;28;20034;-77
2022/03/31 00:59:14;;;;;;;2.17;1.98;;;;;;;;;;2064614;28;20491;-79
2022/03/31 01:00:33;;;;;;;1.95;1.77;;;;;;;;;;2055383;28;20042;-77
2022/03/31 01:01:53;;;;;;;2.63;1.80;;;;;;;;;;2055875;28;20503;-79
2022/03/31 01:03:12;;;;;;;3.42;2.00;;;;;;;;;;2056569;28;20043;-77
2022/03/31 01:04:34;;;;;;;5.10;2.00;;;;;;;;;;2061245;28;20034;-77
2022/03/31 01:05:53;;;;;;;5.70;1.80;;;;;;;;;;2063395;28;20128;-77
2022/03/31 01:07:12;;;;;;;2.65;1.80;;;;;;;;;;2056322;28;20034;-77
2022/03/31 01:08:31;;;;;;;3.53;1.92;;;;;;;;;;2055578;28;20031;-79
2022/03/31 01:09:50;;;;;;;1.80;1.63;;;;;;;;;;2051816;28;20039;-77
2022/03/31 01:11:09;;;;;;;2.30;1.70;;;;;;;;;;2061552;28;20022;-77
2022/03/31 01:12:27;;;;;;;3.55;1.80;;;;;;;;;;2055594;28;20560;-77
2022/03/31 01:13:46;;;;;;;3.35;1.60;;;;;;;;;;2060719;28;20070;-78
2022/03/31 01:15:31;;;;;;;3.05;1.60;;;;;;;;;;2055448;28;20437;-77
2022/03/31 01:16:50;;;;;;;3.50;2.05;;;;;;;;;;2055575;28;20038;-77
2022/03/31 01:18:10;;;;;;;4.10;1.52;;;;;;;;;;2053257;28;20508;-77
2022/03/31 01:19:29;;;;;;;4.30;2.00;;;;;;;;;;2061326;28;20452;-78
2022/03/31 01:20:48;;;;;;;4.82;1.80;;;;;;;;;;2055147;28;20039;-80
2022/03/31 01:22:11;;;;;;;4.43;1.85;;;;;;;;;;2054769;28;20050;-77
2022/03/31 01:23:30;;;;;;;2.05;1.80;;;;;;;;;;2060759;28;20113;-76
2022/03/31 01:24:50;;;;;;;2.58;1.80;;;;;;;;;;2065033;28;20038;-77
2022/03/31 01:26:10;;;;;;;3.33;1.70;;;;;;;;;;2056342;28;20131;-78
2022/03/31 01:27:29;;;;;;;3.80;1.58;;;;;;;;;;2053115;28;20464;-77
2022/03/31 01:28:51;;;;;;;3.60;1.67;;;;;;;;;;2061107;28;20528;-76
2022/03/31 01:30:13;;;;;;;3.22;1.75;;;;;;;;;;2053936;28;20018;-82
2022/03/31 01:31:32;;;;;;;3.47;1.88;;;;;;;;;;2056146;28;20512;-77
2022/03/31 01:32:54;;;;;;;1.83;1.67;;;;;;;;;;2059086;28;20038;-74
2022/03/31 01:34:13;;;;;;;3.50;1.35;;;;;;;;;;2064029;28;20141;-74
2022/03/31 01:35:32;;;;;;;6.05;1.85;;;;;;;;;;2064428;28;20480;-76
2022/03/31 01:36:51;;;;;;;2.80;1.83;;;;;;;;;;2056519;28;20043;-75
2022/03/31 01:38:10;;;;;;;3.20;2.00;;;;;;;;;;2055069;28;20115;-77
2022/03/31 01:39:29;;;;;;;5.35;2.00;;;;;;;;;;2053465;28;20110;-74
2022/03/31 01:40:48;;;;;;;6.53;2.00;;;;;;;;;;2050964;28;20451;-74
2022/03/31 01:42:07;;;;;;;2.90;1.55;;;;;;;;;;2052960;28;20065;-77
2022/03/31 01:43:27;;;;;;;2.50;1.67;;;;;;;;;;2061396;28;20027;-76
2022/03/31 01:44:46;;;;;;;1.83;1.73;;;;;;;;;;2064259;28;20027;-77
2022/03/31 01:46:08;;;;;;;5.13;1.77;;;;;;;;;;2063405;28;20036;-76
2022/03/31 01:47:27;;;;;;;3.40;1.92;;;;;;;;;;2065062;28;20105;-77
2022/03/31 01:48:46;;;;;;;6.38;1.90;;;;;;;;;;2056236;28;20030;-77
2022/03/31 01:50:09;;;;;;;3.40;1.90;;;;;;;;;;2053978;28;20027;-77
2022/03/31 01:51:28;;;;;;;2.53;1.67;;;;;;;;;;2062127;28;20039;-77
2022/03/31 01:52:50;;;;;;;6.20;1.88;;;;;;;;;;2055670;28;20063;-77
2022/03/31 01:54:09;;;;;;;6.25;2.47;;;;;;;;;;2060791;28;20054;-77
2022/03/31 01:55:28;;;;;;;5.53;1.70;;;;;;;;;;2063305;28;20019;-78
2022/03/31 01:56:49;;;;;;;3.97;1.58;;;;;;;;;;2055785;28;20043;-77
2022/03/31 01:58:08;;;;;;;6.53;2.33;;;;;;;;;;2059890;28;20038;-77
2022/03/31 01:59:31;;;;;;;6.85;2.22;;;;;;;;;;2055293;28;20034;-78
2022/03/31 02:00:50;;;;;;;6.95;2.15;;;;;;;;;;2041851;28;20055;-77
2022/03/31 02:02:12;;;;;;;3.50;2.20;;;;;;;;;;2047428;28;20031;-77
2022/03/31 02:03:30;;;;;;;4.70;2.28;;;;;;;;;;2061123;28;20114;-78
2022/03/31 02:04:49;;;;;;;4.00;1.75;;;;;;;;;;2056614;28;20031;-77
2022/03/31 02:06:09;;;;;;;2.35;1.73;;;;;;;;;;2051965;28;20524;-78
2022/03/31 02:07:28;;;;;;;4.25;2.05;;;;;;;;;;2052058;28;20030;-78
2022/03/31 02:08:47;;;;;;;4.53;2.22;;;;;;;;;;2061100;28;20034;-77
2022/03/31 02:10:09;;;;;;;3.33;1.95;;;;;;;;;;2056003;28;20890;-77
2022/03/31 02:11:28;;;;;;;5.03;1.45;;;;;;;;;;2060049;28;20026;-78
2022/03/31 02:12:48;;;;;;;3.05;2.00;;;;;;;;;;2064701;28;20018;-77
2022/03/31 02:14:08;;;;;;;4.63;1.67;;;;;;;;;;2064567;28;20026;-81
2022/03/31 02:15:29;;;;;;;4.05;2.10;;;;;;;;;;2064410;28;20038;-77
2022/03/31 02:16:48;;;;;;;3.35;1.92;;;;;;;;;;2063747;28;20058;-77
2022/03/31 02:18:06;;;;;;;1.80;1.60;;;;;;;;;;2064635;28;20496;-77
2022/03/31 02:19:25;;;;;;;3.53;1.73;;;;;;;;;;2056591;28;20110;-77
2022/03/31 02:20:44;;;;;;;3.67;1.45;;;;;;;;;;2053227;28;20082;-77
2022/03/31 02:22:04;;;;;;;7.38;2.00;;;;;;;;;;2051435;28;20456;-76
2022/03/31 02:23:23;;;;;;;7.20;2.10;;;;;;;;;;2061092;28;20031;-78
2022/03/31 02:24:43;;;;;;;4.30;1.73;;;;;;;;;;2056410;28;20040;-78
2022/03/31 02:26:02;;;;;;;2.30;2.03;;;;;;;;;;2051277;28;20031;-74
2022/03/31 02:27:21;;;;;;;2.92;1.60;;;;;;;;;;2061632;28;20373;-74
2022/03/31 02:28:40;;;;;;;3.28;1.60;;;;;;;;;;2056452;28;20043;-75
2022/03/31 02:29:59;;;;;;;4.88;1.92;;;;;;;;;;2058476;28;20026;-75
2022/03/31 02:31:18;;;;;;;4.20;1.83;;;;;;;;;;2053424;28;20035;-74
2022/03/31 02:32:37;;;;;;;3.28;1.73;;;;;;;;;;2058778;28;20034;-77
2022/03/31 02:33:56;;;;;;;8.55;1.58;;;;;;;;;;2064400;28;20031;-74
2022/03/31 02:35:17;;;;;;;2.58;1.83;;;;;;;;;;2056155;28;20464;-74
2022/03/31 02:36:36;;;;;;;1.92;1.70;;;;;;;;;;2053970;28;20031;-80
2022/03/31 02:37:54;;;;;;;1.63;1.30;;;;;;;;;;2052053;28;20027;-76
2022/03/31 02:39:13;;;;;;;1.55;1.42;;;;;;;;;;2052651;28;20031;-74
2022/03/31 02:40:32;;;;;;;1.63;1.52;;;;;;;;;;2052015;28;20023;-74
2022/03/31 02:41:52;;;;;;;2.38;1.77;;;;;;;;;;2051236;28;20060;-75
2022/03/31 02:43:12;;;;;;;2.67;1.48;;;;;;;;;;2053099;28;20034;-80
2022/03/31 02:44:31;;;;;;;3.92;1.63;;;;;;;;;;2053325;28;20023;-74
2022/03/31 02:45:50;;;;;;;4.93;2.42;;;;;;;;;;2051490;28;20399;-77
2022/03/31 02:47:10;;;;;;;5.75;1.90;;;;;;;;;;2060237;28;20034;-77
2022/03/31 02:48:29;;;;;;;3.08;1.80;;;;;;;;;;2062518;28;20031;-77
2022/03/31 02:49:48;;;;;;;3.08;1.60;;;;;;;;;;2055310;28;20030;-77
2022/03/31 02:51:07;;;;;;;2.92;1.48;;;;;;;;;;2061297;28;20480;-80
2022/03/31 02:52:26;;;;;;;3.75;2.00;;;;;;;;;;2054892;28;20512;-77
2022/03/31 02:55:25;;;;;;;3.85;1.60;;;;;;;;;;2063669;28;20022;-77
2022/03/31 02:56:45;;;;;;;2.28;1.08;;;;;;;;;;2063727;28;20062;-77
2022/03/31 02:58:04;;;;;;;3.15;1.83;;;;;;;;;;2064836;28;20034;-77
2022/03/31 02:59:24;;;;;;;2.67;1.63;;;;;;;;;;2055840;28;20044;-77
2022/03/31 03:00:42;;;;;;;2.70;1.85;;;;;;;;;;2054971;28;20074;-77
2022/03/31 03:02:01;;;;;;;3.97;1.70;;;;;;;;;;2049754;28;20039;-77
2022/03/31 03:03:21;;;;;;;4.88;2.03;;;;;;;;;;2052385;28;20062;-77
2022/03/31 03:04:40;;;;;;;5.97;2.40;;;;;;;;;;2060571;28;20492;-77
2022/03/31 03:05:59;;;;;;;4.03;1.77;;;;;;;;;;2055935;28;20047;-77
2022/03/31 03:07:18;;;;;;;1.90;1.80;;;;;;;;;;2051115;28;20038;-76
2022/03/31 03:08:37;;;;;;;5.25;2.33;;;;;;;;;;2051443;28;20034;-79
2022/03/31 03:09:58;;;;;;;2.78;1.60;;;;;;;;;;2060318;28;20027;-77
2022/03/31 03:11:17;;;;;;;3.78;2.33;;;;;;;;;;2053935;28;20035;-78
2022/03/31 03:12:37;;;;;;;8.68;2.10;;;;;;;;;;2059103;28;20148;-78
2022/03/31 03:13:55;;;;;;;4.63;2.25;;;;;;;;;;2064636;28;20039;-78
2022/03/31 03:15:15;;;;;;;2.63;2.28;;;;;;;;;;2056019;28;20034;-78
2022/03/31 03:16:33;;;;;;;4.13;1.52;;;;;;;;;;2054172;28;20027;-77
2022/03/31 03:17:52;;;;;;;4.85;2.22;;;;;;;;;;2060995;28;20105;-75
2022/03/31 03:19:12;;;;;;;1.73;1.58;;;;;;;;;;2054671;28;20015;-77
2022/03/31 03:20:31;;;;;;;5.25;2.10;;;;;;;;;;2055828;28;20094;-77
2022/03/31 03:21:52;;;;;;;6.03;2.30;;;;;;;;;;2050774;28;20039;-79
2022/03/31 03:23:11;;;;;;;4.20;1.80;;;;;;;;;;2052917;28;20035;-78
2022/03/31 03:24:30;;;;;;;4.57;2.10;;;;;;;;;;2061347;28;20030;-77
2022/03/31 03:25:49;;;;;;;3.63;1.85;;;;;;;;;;2055418;28;20043;-78
2022/03/31 03:27:07;;;;;;;2.90;1.85;;;;;;;;;;2054384;28;20035;-78
2022/03/31 03:28:29;;;;;;;5.85;1.92;;;;;;;;;;2053854;28;20156;-77
2022/03/31 03:29:48;;;;;;;2.75;1.75;;;;;;;;;;2062194;28;20112;-77
2022/03/31 03:31:08;;;;;;;3.13;2.20;;;;;;;;;;2057219;28;20034;-78
2022/03/31 03:32:27;;;;;;;3.60;1.80;;;;;;;;;;2059976;28;20038;-77
2022/03/31 03:33:46;;;;;;;5.82;2.13;;;;;;;;;;2057365;28;20311;-77
2022/03/31 03:35:09;;;;;;;3.45;1.42;;;;;;;;;;2061036;28;20060;-77
2022/03/31 03:36:27;;;;;;;4.68;1.70;;;;;;;;;;2055372;28;20027;-77
2022/03/31 03:37:46;;;;;;;6.47;2.45;;;;;;;;;;2052965;28;20505;-76
2022/03/31 03:39:06;;;;;;;5.68;1.80;;;;;;;;;;2052439;28;20071;-77
2022/03/31 03:40:25;;;;;;;9.68;2.35;;;;;;;;;;2053658;28;20035;-77
2022/03/31 03:41:44;;;;;;;11.35;2.42;;;;;;;;;;2053220;28;20026;-79
2022/03/31 03:43:02;;;;;;;4.15;2.00;;;;;;;;;;2061694;28;20026;-77
2022/03/31 03:44:22;;;;;;;5.53;2.20;;;;;;;;;;2056762;28;20476;-77
2022/03/31 03:45:41;;;;;;;5.32;2.22;;;;;;;;;;2056709;28;20027;-79
2022/03/31 03:47:00;;;;;;;5.85;2.33;;;;;;;;;;2062576;28;20039;-77
2022/03/31 03:48:21;;;;;;;4.93;1.95;;;;;;;;;;2056426;28;20031;-78
2022/03/31 03:49:41;;;;;;;7.75;1.95;;;;;;;;;;2053911;28;20073;-77
2022/03/31 03:51:00;;;;;;;5.22;1.92;;;;;;;;;;2053907;28;20026;-77
2022/03/31 03:52:23;;;;;;;9.65;2.50;;;;;;;;;;2052275;28;20397;-76
2022/03/31 03:53:42;;;;;;;5.55;2.20;;;;;;;;;;2063172;28;20042;-79
2022/03/31 03:55:01;;;;;;;3.50;2.10;;;;;;;;;;2057825;28;20464;-76
2022/03/31 03:56:23;;;;;;;4.65;2.00;;;;;;;;;;2055603;28;20031;-77
2022/03/31 03:57:42;;;;;;;4.88;1.90;;;;;;;;;;2056738;28;20023;-79
2022/03/31 03:59:01;;;;;;;2.72;2.45;;;;;;;;;;2062307;28;20038;-77
2022/03/31 04:00:23;;;;;;;4.65;2.40;;;;;;;;;;2064479;28;20035;-79
2022/03/31 04:01:42;;;;;;;3.80;2.08;;;;;;;;;;2056715;28;20488;-77
2022/03/31 04:03:00;;;;;;;4.93;3.15;;;;;;;;;;2057094;28;20504;-77
2022/03/31 04:04:19;;;;;;;26.40;13.35;;;;;;;;;;2053832;28;20086;-77
2022/03/31 04:05:38;;;;;;;14.25;7.00;;;;;;;;;;2062175;28;20035;-77
2022/03/31 04:06:57;;;;;;;13.82;6.05;;;;;;;;;;2066201;28;20220;-77
2022/03/31 04:08:16;;;;;;;19.90;8.10;;;;;;;;;;2063605;28;20034;-77
2022/03/31 04:09:34;;;;;;;11.52;4.68;;;;;;;;;;2057470;28;20062;-78
2022/03/31 04:10:56;;;;;;;13.93;6.75;;;;;;;;;;2053263;28;20039;-77
2022/03/31 04:12:15;;;;;;;10.57;6.32;;;;;;;;;;2060706;28;20026;-79
2022/03/31 04:13:34;;;;;;;7.38;4.00;;;;;;;;;;2065197;28;20050;-77
2022/03/31 04:14:53;;;;;;;8.40;3.53;;;;;;;;;;2057183;28;20031;-77
2022/03/31 04:16:12;;;;;;;7.68;3.03;;;;;;;;;;2053062;28;20495;-77
2022/03/31 04:17:32;;;;;;;2.60;2.35;;;;;;;;;;2053580;28;20054;-77
2022/03/31 04:18:51;;;;;;;6.07;2.30;;;;;;;;;;2052718;28;20452;-79
2022/03/31 04:20:13;;;;;;;10.52;2.50;;;;;;;;;;2052966;28;20031;-78
2022/03/31 04:21:32;;;;;;;6.53;2.10;;;;;;;;;;2054204;28;20105;-77
2022/03/31 04:22:51;;;;;;;4.32;2.30;;;;;;;;;;2056932;28;20468;-78
2022/03/31 04:24:10;;;;;;;3.33;2.10;;;;;;;;;;2061711;28;20046;-77
2022/03/31 04:25:29;;;;;;;8.95;3.03;;;;;;;;;;2055909;28;20113;-78
2022/03/31 04:26:48;;;;;;;3.80;2.17;;;;;;;;;;2061488;28;20238;-78
2022/03/31 04:28:07;;;;;;;3.70;2.25;;;;;;;;;;2055728;28;20088;-79
2022/03/31 04:29:27;;;;;;;5.55;2.60;;;;;;;;;;2056935;28;20420;-77
2022/03/31 04:30:46;;;;;;;11.95;2.58;;;;;;;;;;2056463;28;20105;-77
2022/03/31 04:32:06;;;;;;;2.63;2.40;;;;;;;;;;2053729;28;20105;-82
2022/03/31 04:33:26;;;;;;;7.35;2.28;;;;;;;;;;2057872;28;20042;-77
2022/03/31 04:34:45;;;;;;;6.07;2.20;;;;;;;;;;2063515;28;20392;-77
2022/03/31 04:36:07;;;;;;;4.18;2.78;;;;;;;;;;2055037;28;20461;-81
2022/03/31 04:37:26;;;;;;;5.72;2.00;;;;;;;;;;2062282;28;20543;-79
2022/03/31 04:38:45;;;;;;;8.13;2.42;;;;;;;;;;2056456;28;20505;-79
2022/03/31 04:40:05;;;;;;;3.30;2.00;;;;;;;;;;2053869;28;20047;-81
2022/03/31 04:41:24;;;;;;;4.43;2.35;;;;;;;;;;2061882;28;20018;-78
2022/03/31 04:42:46;;;;;;;3.83;1.92;;;;;;;;;;2052440;28;20030;-77
2022/03/31 04:44:05;;;;;;;4.22;1.45;;;;;;;;;;2050586;28;20034;-77
2022/03/31 04:45:24;;;;;;;4.72;2.00;;;;;;;;;;2052804;28;20106;-79
2022/03/31 04:46:45;;;;;;;5.22;2.05;;;;;;;;;;2052292;28;20023;-77
2022/03/31 04:48:04;;;;;;;3.85;2.25;;;;;;;;;;2061184;28;20030;-79
2022/03/31 04:49:22;;;;;;;8.20;2.30;;;;;;;;;;2056013;28;20043;-79
2022/03/31 04:50:41;;;;;;;5.03;2.10;;;;;;;;;;2053613;28;20035;-76
2022/03/31 04:52:01;;;;;;;3.13;1.75;;;;;;;;;;2053704;28;20046;-76
2022/03/31 04:53:20;;;;;;;9.80;2.33;;;;;;;;;;2052729;28;20027;-82
2022/03/31 04:54:43;;;;;;;3.88;2.30;;;;;;;;;;2061157;28;20116;-78
2022/03/31 04:56:02;;;;;;;8.43;2.50;;;;;;;;;;2063928;28;20476;-78
2022/03/31 04:57:24;;;;;;;3.33;1.88;;;;;;;;;;2055228;28;20102;-77
2022/03/31 04:58:44;;;;;;;3.10;2.13;;;;;;;;;;2054615;28;20454;-76
2022/03/31 05:00:06;;;;;;;8.48;2.22;;;;;;;;;;2061062;28;20233;-78
2022/03/31 05:01:25;;;;;;;7.03;2.33;;;;;;;;;;2056432;28;20039;-77
2022/03/31 05:02:44;;;;;;;8.07;2.20;;;;;;;;;;2050671;28;20121;-79
2022/03/31 05:04:06;;;;;;;8.98;2.65;;;;;;;;;;2051634;28;20035;-77
2022/03/31 05:05:25;;;;;;;7.70;2.63;;;;;;;;;;2059043;28;20030;-75
2022/03/31 05:06:44;;;;;;;10.32;2.40;;;;;;;;;;2053926;28;20031;-76
2022/03/31 05:08:03;;;;;;;4.85;2.17;;;;;;;;;;2059948;28;20030;-76
2022/03/31 05:09:25;;;;;;;5.93;2.53;;;;;;;;;;2055022;28;20354;-81
2022/03/31 05:10:45;;;;;;;8.43;3.15;;;;;;;;;;2061941;28;20134;-78
2022/03/31 05:12:05;;;;;;;6.35;2.53;;;;;;;;;;2054207;28;20038;-76
2022/03/31 05:13:24;;;;;;;5.43;2.15;;;;;;;;;;2054026;28;20106;-78
2022/03/31 05:14:43;;;;;;;6.18;2.50;;;;;;;;;;2060765;28;20117;-77
2022/03/31 05:16:02;;;;;;;4.53;2.10;;;;;;;;;;2054178;28;20023;-78
2022/03/31 05:17:21;;;;;;;6.97;2.30;;;;;;;;;;2053725;28;20062;-76
2022/03/31 05:18:41;;;;;;;15.82;4.20;;;;;;;;;;2058260;28;20089;-76
2022/03/31 05:20:03;;;;;;;27.23;6.18;;;;;;;;;;2055276;28;20046;-79
2022/03/31 05:21:22;;;;;;;18.60;2.88;;;;;;;;;;2057685;28;20027;-81
2022/03/31 05:22:41;;;;;;;14.85;4.38;;;;;;;;;;2062124;28;20130;-77
2022/03/31 05:24:01;;;;;;;18.20;4.47;;;;;;;;;;2052766;28;20035;-79
2022/03/31 05:25:22;;;;;;;20.23;3.33;;;;;;;;;;2058567;28;20030;-77
2022/03/31 05:26:44;;;;;;;17.02;3.67;;;;;;;;;;2054935;28;20415;-77
2022/03/31 05:28:04;;;;;;;7.25;3.88;;;;;;;;;;2061368;28;20033;-77
2022/03/31 05:29:23;;;;;;;10.95;3.67;;;;;;;;;;2056156;28;20416;-77
2022/03/31 05:30:43;;;;;;;12.73;3.53;;;;;;;;;;2052075;28;20504;-77
2022/03/31 05:32:03;;;;;;;18.83;4.05;;;;;;;;;;2060136;28;20428;-80
2022/03/31 05:33:22;;;;;;;18.13;4.47;;;;;;;;;;2060670;28;20388;-77
2022/03/31 05:34:41;;;;;;;11.82;3.60;;;;;;;;;;2060347;28;20038;-78
2022/03/31 05:36:01;;;;;;;20.23;4.90;;;;;;;;;;2052727;28;20023;-81
2022/03/31 05:37:21;;;;;;;13.50;3.55;;;;;;;;;;2053401;28;20026;-77
2022/03/31 05:38:39;;;;;;;18.00;3.20;;;;;;;;;;2052395;28;20030;-81
2022/03/31 05:40:01;;;;;;;4.53;2.78;;;;;;;;;;2057498;28;20042;-77
2022/03/31 05:41:20;;;;;;;11.30;2.67;;;;;;;;;;2064013;28;20109;-77
2022/03/31 05:42:39;;;;;;;12.15;3.22;;;;;;;;;;2064176;28;20026;-77
2022/03/31 05:44:02;;;;;;;8.88;2.95;;;;;;;;;;2056377;28;20361;-77
2022/03/31 05:45:25;;;;;;;6.05;1.63;;;;;;;;;;2056372;28;20034;-77
2022/03/31 05:46:44;;;;;;;9.25;2.45;;;;;;;;;;2052842;28;20035;-76
2022/03/31 05:48:03;;;;;;;11.13;2.40;;;;;;;;;;2053074;28;20034;-77
2022/03/31 05:49:22;;;;;;;5.90;2.30;;;;;;;;;;2059198;28;20034;-79
2022/03/31 05:50:44;;;;;;;15.38;2.97;;;;;;;;;;2054805;28;20120;-77
2022/03/31 05:52:03;;;;;;;20.60;4.82;;;;;;;;;;2060263;28;20030;-78
2022/03/31 05:53:22;;;;;;;12.88;3.50;;;;;;;;;;2055667;28;20034;-79
2022/03/31 05:54:42;;;;;;;12.77;4.38;;;;;;;;;;2055009;28;20042;-79
2022/03/31 05:56:01;;;;;;;18.13;3.50;;;;;;;;;;2060303;28;20030;-80
2022/03/31 05:57:20;;;;;;;11.80;3.70;;;;;;;;;;2052543;28;20172;-80
2022/03/31 05:58:39;;;;;;;8.30;3.45;;;;;;;;;;2058937;28;20034;-79
2022/03/31 05:59:58;;;;;;;11.13;2.80;;;;;;;;;;2061000;28;20476;-79
2022/03/31 06:01:17;;;;;;;9.82;2.85;;;;;;;;;;2062594;28;20117;-78
2022/03/31 06:02:36;;;;;;;14.63;3.17;;;;;;;;;;2053512;28;20440;-78
2022/03/31 06:03:55;;;;;;;15.93;3.40;;;;;;;;;;2061312;28;20061;-78
2022/03/31 06:05:15;;;;;;;11.70;2.47;;;;;;;;;;2060887;28;20023;-77
2022/03/31 06:06:34;;;;;;;10.45;2.58;;;;;;;;;;2054344;28;20951;-78
2022/03/31 06:07:53;;;;;;;6.78;2.40;;;;;;;;;;2061819;28;20066;-78
2022/03/31 06:09:12;;;;;;;7.32;2.78;;;;;;;;;;2056534;28;20055;-78
2022/03/31 06:10:31;;;;;;;14.60;2.60;;;;;;;;;;2055596;28;20047;-78
2022/03/31 06:11:50;;;;;;;8.57;2.70;;;;;;;;;;2052831;28;20504;-78
2022/03/31 06:13:09;;;;;;;11.23;2.60;;;;;;;;;;2053032;28;20035;-78
2022/03/31 06:14:31;;;;;;;5.63;2.42;;;;;;;;;;2061487;28;20030;-78
2022/03/31 06:15:50;;;;;;;20.08;2.85;;;;;;;;;;2064055;28;20038;-80
2022/03/31 06:17:08;;;;;;;13.55;2.80;;;;;;;;;;2055369;28;20035;-80
2022/03/31 06:18:27;;;;;;;6.15;2.60;;;;;;;;;;2052094;28;20027;-77
2022/03/31 06:19:46;;;;;;;19.95;2.85;;;;;;;;;;2049728;28;20507;-77
2022/03/31 06:21:06;;;;;;;15.45;2.90;;;;;;;;;;2062854;28;20070;-78
2022/03/31 06:22:25;;;;;;;20.98;4.07;;;;;;;;;;2056110;28;20059;-77
2022/03/31 06:23:44;;;;;;;13.05;2.58;;;;;;;;;;2056351;28;20027;-80
2022/03/31 06:25:03;;;;;;;13.52;3.40;;;;;;;;;;2059016;28;20038;-78
2022/03/31 06:26:26;;;;;;;8.18;2.65;;;;;;;;;;2063482;28;20536;-77
2022/03/31 06:27:46;;;;;;;6.32;2.47;;;;;;;;;;2065064;28;20023;-76
2022/03/31 06:29:07;;;;;;;11.07;2.63;;;;;;;;;;2056011;28;20469;-78
2022/03/31 06:30:28;;;;;;;8.55;2.70;;;;;;;;;;2053110;28;20038;-77
2022/03/31 06:31:50;;;;;;;9.73;2.50;;;;;;;;;;2061081;28;20022;-81
2022/03/31 06:33:12;;;;;;;5.95;2.40;;;;;;;;;;2055823;28;20031;-78
2022/03/31 06:34:31;;;;;;;9.93;2.50;;;;;;;;;;2053712;28;20031;-78
2022/03/31 06:35:50;;;;;;;7.28;2.38;;;;;;;;;;2060354;28;20038;-80
2022/03/31 06:37:10;;;;;;;10.63;2.35;;;;;;;;;;2064291;28;20038;-77
2022/03/31 06:38:29;;;;;;;8.18;3.13;;;;;;;;;;2056582;28;20026;-77
2022/03/31 06:39:48;;;;;;;15.30;2.75;;;;;;;;;;2057506;28;20038;-77
2022/03/31 06:41:07;;;;;;;18.42;3.85;;;;;;;;;;2053770;28;20348;-77
2022/03/31 06:42:26;;;;;;;30.08;4.30;;;;;;;;;;2055004;28;20109;-77
2022/03/31 06:43:46;;;;;;;22.38;4.50;;;;;;;;;;2052302;28;20031;-77
2022/03/31 06:45:08;;;;;;;11.07;2.97;;;;;;;;;;2060821;28;20066;-77
2022/03/31 06:46:28;;;;;;;16.10;2.53;;;;;;;;;;2063124;28;20026;-78
2022/03/31 06:47:49;;;;;;;14.02;2.45;;;;;;;;;;2053820;28;20035;-77
2022/03/31 06:49:08;;;;;;;7.13;2.80;;;;;;;;;;2061023;28;20150;-77
2022/03/31 06:50:32;;;;;;;10.15;2.55;;;;;;;;;;2053175;28;20023;-78
2022/03/31 06:51:51;;;;;;;12.73;2.90;;;;;;;;;;2062256;28;20026;-77
2022/03/31 06:53:10;;;;;;;17.08;2.90;;;;;;;;;;2063159;28;20026;-78
2022/03/31 06:54:30;;;;;;;20.33;2.90;;;;;;;;;;2056058;28;20507;-77
2022/03/31 06:55:49;;;;;;;20.27;3.53;;;;;;;;;;2055324;28;20043;-77
2022/03/31 06:57:09;;;;;;;5.35;2.50;;;;;;;;;;2052732;28;20054;-78
2022/03/31 06:58:30;;;;;;;20.65;2.80;;;;;;;;;;2049632;28;20432;-79
2022/03/31 06:59:51;;;;;;;12.25;2.35;;;;;;;;;;2049713;28;20821;-82
2022/03/31 07:01:11;;;;;;;6.65;2.13;;;;;;;;;;2058454;28;20463;-78
2022/03/31 07:02:30;;;;;;;10.50;3.03;;;;;;;;;;2054107;28;20489;-82
2022/03/31 07:03:49;;;;;;;8.77;2.25;;;;;;;;;;2051902;28;20414;-78
2022/03/31 07:05:09;;;;;;;5.90;1.63;;;;;;;;;;2054183;28;20034;-78
2022/03/31 07:06:30;;;;;;;7.28;1.95;;;;;;;;;;2054231;28;20035;-79
2022/03/31 07:07:49;;;;;;;3.22;1.85;;;;;;;;;;2054079;28;20027;-78
2022/03/31 07:09:10;;;;;;;7.28;1.95;;;;;;;;;;2049356;28;20019;-83
2022/03/31 07:10:32;;;;;;;2.78;1.70;;;;;;;;;;2052380;28;20694;-78
2022/03/31 07:11:51;;;;;;;5.07;1.52;;;;;;;;;;2050281;28;20035;-78
2022/03/31 07:13:10;;;;;;;13.93;2.35;;;;;;;;;;2048939;28;20031;-82
2022/03/31 07:14:33;;;;;;;8.48;1.95;;;;;;;;;;2058119;28;20500;-79
2022/03/31 07:15:52;;;;;;;7.85;2.17;;;;;;;;;;2060311;28;20403;-78
2022/03/31 07:17:12;;;;;;;9.10;1.65;;;;;;;;;;2060571;28;20026;-82
2022/03/31 07:18:31;;;;;;;7.15;1.90;;;;;;;;;;2064197;28;20022;-80
2022/03/31 07:19:50;;;;;;;1.98;1.20;;;;;;;;;;2052141;28;20035;-79
2022/03/31 07:21:09;;;;;;;15.25;2.30;;;;;;;;;;2057321;28;20113;-79
2022/03/31 07:22:30;;;;;;;6.25;1.60;;;;;;;;;;2053233;28;20027;-81
2022/03/31 07:23:52;;;;;;;6.75;1.88;;;;;;;;;;2041455;28;20172;-82
2022/03/31 07:25:11;;;;;;;6.47;2.00;;;;;;;;;;2054998;28;20113;-78
2022/03/31 07:26:30;;;;;;;11.90;2.28;;;;;;;;;;2060066;28;20026;-79
2022/03/31 07:27:49;;;;;;;4.95;1.65;;;;;;;;;;2052589;28;20026;-79
2022/03/31 07:29:09;;;;;;;6.03;1.73;;;;;;;;;;2057101;28;20806;-78
2022/03/31 07:30:28;;;;;;;3.38;1.20;;;;;;;;;;2052436;28;20031;-80
2022/03/31 07:31:47;;;;;;;7.45;1.52;;;;;;;;;;2048429;28;20039;-82
2022/03/31 07:33:06;;;;;;;5.78;1.33;;;;;;;;;;2049617;28;20492;-78
2022/03/31 07:34:25;;;;;;;3.42;1.30;;;;;;;;;;2057678;28;20034;-80
2022/03/31 07:35:47;;;;;;;1.50;1.00;;;;;;;;;;2052179;28;20035;-80
2022/03/31 07:37:06;;;;;;;5.07;1.25;;;;;;;;;;2049428;28;20090;-78
2022/03/31 07:38:25;;;;;;;8.05;1.15;;;;;;;;;;2058848;28;20026;-80
2022/03/31 07:39:47;;;;;;;7.20;2.00;;;;;;;;;;2060966;28;20031;-79
2022/03/31 07:41:06;;;;;;;3.55;1.45;;;;;;;;;;2061144;28;20390;-78
2022/03/31 07:42:25;;;;;;;4.22;1.27;;;;;;;;;;2051946;28;20035;-78
2022/03/31 07:43:44;;;;;;;34.45;3.95;;;;;;;;;;2057154;28;20022;-79
2022/03/31 07:45:03;;;;;;;15.68;2.38;;;;;;;;;;2051527;28;20115;-80
2022/03/31 07:46:22;;;;;;;3.40;1.20;;;;;;;;;;2057315;28;20046;-76
2022/03/31 07:47:42;;;;;;;2.75;1.30;;;;;;;;;;2060368;28;20022;-78
2022/03/31 07:49:01;;;;;;;7.65;1.70;;;;;;;;;;2052602;28;20035;-75
2022/03/31 07:50:21;;;;;;;8.35;1.30;;;;;;;;;;2049224;28;20038;-79
2022/03/31 07:51:40;;;;;;;8.10;1.45;;;;;;;;;;2056676;28;20034;-76
2022/03/31 07:52:59;;;;;;;2.15;1.20;;;;;;;;;;2051692;28;20533;-76
2022/03/31 07:54:18;;;;;;;4.47;1.20;;;;;;;;;;2049445;28;20034;-77
2022/03/31 07:55:37;;;;;;;1.77;1.40;;;;;;;;;;2057252;28;20697;-76
2022/03/31 07:56:56;;;;;;;8.00;1.30;;;;;;;;;;2059870;28;20043;-78
2022/03/31 07:58:15;;;;;;;1.75;0.88;;;;;;;;;;2062183;28;20022;-76
2022/03/31 07:59:34;;;;;;;5.72;1.52;;;;;;;;;;2060917;28;20109;-78